sensor_id;sensor_type;location;lat;lon;timestamp;P1;durP1;ratioP1;P2;durP2;ratioP2
11907;SDS011;6014;47.690;9.130;2023-08-24T00:00:26;12.65;;;5.10;;
11907;SDS011;6014;47.690;9.130;2023-08-24T00:02:56;11.65;;;4.93;;
11907;SDS011;6014;47.690;9.130;2023-08-24T00:05:24;8.45;;;5.00;;
11907;SDS011;6014;47.690;9.130;2023-08-24T00:07:52;12.18;;;6.55;;
11907;SDS011;6014;47.690;9.130;2023-08-24T00:10:20;18.58;;;5.80;;
11907;SDS011;6014;47.690;9.130;2023-08-24T00:12:48;15.32;;;5.40;;
11907;SDS011;6014;47.690;9.130;2023-08-24T00:15:16;7.25;;;4.95;;
11907;SDS011;6014;47.690;9.130;2023-08-24T00:17:44;8.00;;;5.00;;
11907;SDS011;6014;47.690;9.130;2023-08-24T00:20:14;13.80;;;5.07;;
11907;SDS011;6014;47.690;9.130;2023-08-24T00:22:42;8.48;;;6.30;;
11907;SDS011;6014;47.690;9.130;2023-08-24T00:25:10;11.93;;;6.35;;
11907;SDS011;6014;47.690;9.130;2023-08-24T00:27:39;8.02;;;4.82;;
11907;SDS011;6014;47.690;9.130;2023-08-24T00:30:07;11.05;;;5.93;;
11907;SDS011;6014;47.690;9.130;2023-08-24T00:32:36;10.20;;;5.35;;
11907;SDS011;6014;47.690;9.130;2023-08-24T00:35:04;9.60;;;5.40;;
11907;SDS011;6014;47.690;9.130;2023-08-24T00:37:35;8.68;;;5.15;;
11907;SDS011;6014;47.690;9.130;2023-08-24T00:40:04;8.18;;;5.05;;
11907;SDS011;6014;47.690;9.130;2023-08-24T00:42:36;8.38;;;4.93;;
11907;SDS011;6014;47.690;9.130;2023-08-24T00:45:07;10.35;;;4.82;;
11907;SDS011;6014;47.690;9.130;2023-08-24T00:47:36;7.47;;;5.38;;
11907;SDS011;6014;47.690;9.130;2023-08-24T00:50:06;10.27;;;5.00;;
11907;SDS011;6014;47.690;9.130;2023-08-24T00:52:37;10.70;;;5.68;;
11907;SDS011;6014;47.690;9.130;2023-08-24T00:55:07;8.80;;;5.40;;
11907;SDS011;6014;47.690;9.130;2023-08-24T00:57:36;10.02;;;6.07;;
11907;SDS011;6014;47.690;9.130;2023-08-24T01:00:05;8.30;;;5.20;;
11907;SDS011;6014;47.690;9.130;2023-08-24T01:02:36;8.68;;;5.55;;
11907;SDS011;6014;47.690;9.130;2023-08-24T01:05:04;8.10;;;4.82;;
11907;SDS011;6014;47.690;9.130;2023-08-24T01:07:33;7.30;;;4.95;;
11907;SDS011;6014;47.690;9.130;2023-08-24T01:10:05;7.50;;;5.00;;
11907;SDS011;6014;47.690;9.130;2023-08-24T01:12:37;8.13;;;5.20;;
11907;SDS011;6014;47.690;9.130;2023-08-24T01:15:16;7.85;;;5.43;;
11907;SDS011;6014;47.690;9.130;2023-08-24T01:17:49;9.10;;;5.10;;
11907;SDS011;6014;47.690;9.130;2023-08-24T01:20:19;7.72;;;5.53;;
11907;SDS011;6014;47.690;9.130;2023-08-24T01:22:49;7.38;;;5.10;;
11907;SDS011;6014;47.690;9.130;2023-08-24T01:25:29;8.23;;;5.30;;
11907;SDS011;6014;47.690;9.130;2023-08-24T01:28:06;8.32;;;5.35;;
11907;SDS011;6014;47.690;9.130;2023-08-24T01:30:36;9.48;;;5.43;;
11907;SDS011;6014;47.690;9.130;2023-08-24T01:33:04;8.25;;;5.22;;
11907;SDS011;6014;47.690;9.130;2023-08-24T01:35:38;8.02;;;5.15;;
11907;SDS011;6014;47.690;9.130;2023-08-24T01:38:06;9.90;;;5.25;;
11907;SDS011;6014;47.690;9.130;2023-08-24T01:40:42;6.75;;;4.50;;
11907;SDS011;6014;47.690;9.130;2023-08-24T01:43:18;8.85;;;5.38;;
11907;SDS011;6014;47.690;9.130;2023-08-24T01:46:07;10.13;;;5.03;;
11907;SDS011;6014;47.690;9.130;2023-08-24T01:48:35;7.22;;;5.00;;
11907;SDS011;6014;47.690;9.130;2023-08-24T01:51:04;8.52;;;5.68;;
11907;SDS011;6014;47.690;9.130;2023-08-24T01:53:32;8.70;;;5.13;;
11907;SDS011;6014;47.690;9.130;2023-08-24T01:56:01;8.43;;;5.40;;
11907;SDS011;6014;47.690;9.130;2023-08-24T01:58:36;7.38;;;5.10;;
11907;SDS011;6014;47.690;9.130;2023-08-24T02:01:04;8.85;;;5.60;;
11907;SDS011;6014;47.690;9.130;2023-08-24T02:03:33;12.30;;;6.25;;
11907;SDS011;6014;47.690;9.130;2023-08-24T02:06:01;10.80;;;5.40;;
11907;SDS011;6014;47.690;9.130;2023-08-24T02:08:31;7.72;;;5.20;;
11907;SDS011;6014;47.690;9.130;2023-08-24T02:10:59;9.20;;;5.55;;
11907;SDS011;6014;47.690;9.130;2023-08-24T02:13:27;8.55;;;5.70;;
11907;SDS011;6014;47.690;9.130;2023-08-24T02:16:02;8.55;;;5.40;;
11907;SDS011;6014;47.690;9.130;2023-08-24T02:18:30;8.98;;;5.70;;
11907;SDS011;6014;47.690;9.130;2023-08-24T02:20:58;9.35;;;5.53;;
11907;SDS011;6014;47.690;9.130;2023-08-24T02:23:26;9.18;;;5.55;;
11907;SDS011;6014;47.690;9.130;2023-08-24T02:25:56;8.57;;;5.38;;
11907;SDS011;6014;47.690;9.130;2023-08-24T02:28:24;9.13;;;5.65;;
11907;SDS011;6014;47.690;9.130;2023-08-24T02:30:52;9.85;;;5.68;;
11907;SDS011;6014;47.690;9.130;2023-08-24T02:33:21;7.25;;;5.05;;
11907;SDS011;6014;47.690;9.130;2023-08-24T02:35:49;9.65;;;5.57;;
11907;SDS011;6014;47.690;9.130;2023-08-24T02:38:17;7.03;;;5.30;;
11907;SDS011;6014;47.690;9.130;2023-08-24T02:40:45;10.25;;;5.80;;
11907;SDS011;6014;47.690;9.130;2023-08-24T02:43:13;8.02;;;5.18;;
11907;SDS011;6014;47.690;9.130;2023-08-24T02:45:41;6.93;;;5.10;;
11907;SDS011;6014;47.690;9.130;2023-08-24T02:48:10;12.57;;;8.48;;
11907;SDS011;6014;47.690;9.130;2023-08-24T02:50:39;9.82;;;5.57;;
11907;SDS011;6014;47.690;9.130;2023-08-24T02:53:07;7.88;;;5.57;;
11907;SDS011;6014;47.690;9.130;2023-08-24T02:55:35;9.43;;;4.88;;
11907;SDS011;6014;47.690;9.130;2023-08-24T02:58:03;8.88;;;5.47;;
11907;SDS011;6014;47.690;9.130;2023-08-24T03:00:31;7.78;;;5.00;;
11907;SDS011;6014;47.690;9.130;2023-08-24T03:02:59;12.75;;;5.70;;
11907;SDS011;6014;47.690;9.130;2023-08-24T03:05:27;8.70;;;5.30;;
11907;SDS011;6014;47.690;9.130;2023-08-24T03:07:57;10.55;;;5.32;;
11907;SDS011;6014;47.690;9.130;2023-08-24T03:10:25;8.45;;;5.05;;
11907;SDS011;6014;47.690;9.130;2023-08-24T03:12:53;10.07;;;5.47;;
11907;SDS011;6014;47.690;9.130;2023-08-24T03:15:22;7.90;;;5.40;;
11907;SDS011;6014;47.690;9.130;2023-08-24T03:17:50;8.75;;;5.90;;
11907;SDS011;6014;47.690;9.130;2023-08-24T03:20:19;9.55;;;5.65;;
11907;SDS011;6014;47.690;9.130;2023-08-24T03:22:48;8.30;;;5.72;;
11907;SDS011;6014;47.690;9.130;2023-08-24T03:25:18;10.63;;;6.35;;
11907;SDS011;6014;47.690;9.130;2023-08-24T03:27:46;9.45;;;5.50;;
11907;SDS011;6014;47.690;9.130;2023-08-24T03:30:15;9.02;;;5.35;;
11907;SDS011;6014;47.690;9.130;2023-08-24T03:32:43;7.50;;;5.35;;
11907;SDS011;6014;47.690;9.130;2023-08-24T03:35:11;7.00;;;5.18;;
11907;SDS011;6014;47.690;9.130;2023-08-24T03:37:39;8.18;;;5.65;;
11907;SDS011;6014;47.690;9.130;2023-08-24T03:40:07;8.52;;;5.43;;
11907;SDS011;6014;47.690;9.130;2023-08-24T03:42:37;8.82;;;5.47;;
11907;SDS011;6014;47.690;9.130;2023-08-24T03:45:05;7.30;;;5.45;;
11907;SDS011;6014;47.690;9.130;2023-08-24T03:47:34;8.00;;;5.18;;
11907;SDS011;6014;47.690;9.130;2023-08-24T03:50:02;10.75;;;5.35;;
11907;SDS011;6014;47.690;9.130;2023-08-24T03:52:31;9.27;;;5.45;;
11907;SDS011;6014;47.690;9.130;2023-08-24T03:54:59;8.40;;;5.70;;
11907;SDS011;6014;47.690;9.130;2023-08-24T03:57:27;8.93;;;6.18;;
11907;SDS011;6014;47.690;9.130;2023-08-24T03:59:57;8.25;;;5.88;;
11907;SDS011;6014;47.690;9.130;2023-08-24T04:02:25;10.48;;;5.85;;
11907;SDS011;6014;47.690;9.130;2023-08-24T04:04:54;9.40;;;6.07;;
11907;SDS011;6014;47.690;9.130;2023-08-24T04:07:22;8.57;;;5.40;;
11907;SDS011;6014;47.690;9.130;2023-08-24T04:09:50;8.52;;;5.35;;
11907;SDS011;6014;47.690;9.130;2023-08-24T04:12:18;7.97;;;5.75;;
11907;SDS011;6014;47.690;9.130;2023-08-24T04:14:46;9.70;;;5.95;;
11907;SDS011;6014;47.690;9.130;2023-08-24T04:17:16;10.88;;;5.82;;
11907;SDS011;6014;47.690;9.130;2023-08-24T04:19:44;7.85;;;5.65;;
11907;SDS011;6014;47.690;9.130;2023-08-24T04:22:12;9.85;;;6.00;;
11907;SDS011;6014;47.690;9.130;2023-08-24T04:24:40;8.52;;;6.07;;
11907;SDS011;6014;47.690;9.130;2023-08-24T04:27:08;7.70;;;5.18;;
11907;SDS011;6014;47.690;9.130;2023-08-24T04:29:37;9.10;;;5.20;;
11907;SDS011;6014;47.690;9.130;2023-08-24T04:32:05;11.68;;;5.88;;
11907;SDS011;6014;47.690;9.130;2023-08-24T04:34:35;12.52;;;5.65;;
11907;SDS011;6014;47.690;9.130;2023-08-24T04:37:03;7.70;;;5.68;;
11907;SDS011;6014;47.690;9.130;2023-08-24T04:39:33;8.57;;;5.68;;
11907;SDS011;6014;47.690;9.130;2023-08-24T04:42:01;7.72;;;5.53;;
11907;SDS011;6014;47.690;9.130;2023-08-24T04:44:29;8.93;;;5.20;;
11907;SDS011;6014;47.690;9.130;2023-08-24T04:46:57;7.93;;;5.72;;
11907;SDS011;6014;47.690;9.130;2023-08-24T04:49:26;8.65;;;5.38;;
11907;SDS011;6014;47.690;9.130;2023-08-24T04:51:56;8.15;;;5.40;;
11907;SDS011;6014;47.690;9.130;2023-08-24T04:54:24;6.47;;;4.82;;
11907;SDS011;6014;47.690;9.130;2023-08-24T04:56:52;9.38;;;5.13;;
11907;SDS011;6014;47.690;9.130;2023-08-24T04:59:20;10.63;;;5.53;;
11907;SDS011;6014;47.690;9.130;2023-08-24T05:01:48;8.32;;;5.30;;
11907;SDS011;6014;47.690;9.130;2023-08-24T05:04:16;7.68;;;5.65;;
11907;SDS011;6014;47.690;9.130;2023-08-24T05:06:44;8.70;;;6.57;;
11907;SDS011;6014;47.690;9.130;2023-08-24T05:09:14;7.20;;;5.35;;
11907;SDS011;6014;47.690;9.130;2023-08-24T05:11:42;7.85;;;5.75;;
11907;SDS011;6014;47.690;9.130;2023-08-24T05:14:11;8.30;;;5.97;;
11907;SDS011;6014;47.690;9.130;2023-08-24T05:16:40;7.18;;;5.53;;
11907;SDS011;6014;47.690;9.130;2023-08-24T05:19:08;8.55;;;6.07;;
11907;SDS011;6014;47.690;9.130;2023-08-24T05:21:36;10.48;;;5.25;;
11907;SDS011;6014;47.690;9.130;2023-08-24T05:24:04;6.85;;;4.85;;
11907;SDS011;6014;47.690;9.130;2023-08-24T05:26:34;8.30;;;5.30;;
11907;SDS011;6014;47.690;9.130;2023-08-24T05:29:02;10.32;;;5.55;;
11907;SDS011;6014;47.690;9.130;2023-08-24T05:31:30;7.43;;;5.35;;
11907;SDS011;6014;47.690;9.130;2023-08-24T05:33:58;9.80;;;5.60;;
11907;SDS011;6014;47.690;9.130;2023-08-24T05:36:26;7.00;;;5.15;;
11907;SDS011;6014;47.690;9.130;2023-08-24T05:38:54;9.10;;;4.97;;
11907;SDS011;6014;47.690;9.130;2023-08-24T05:41:31;8.77;;;5.35;;
11907;SDS011;6014;47.690;9.130;2023-08-24T05:44:02;9.27;;;5.20;;
11907;SDS011;6014;47.690;9.130;2023-08-24T05:46:30;9.48;;;5.38;;
11907;SDS011;6014;47.690;9.130;2023-08-24T05:48:59;8.77;;;5.38;;
11907;SDS011;6014;47.690;9.130;2023-08-24T05:51:27;7.60;;;5.35;;
11907;SDS011;6014;47.690;9.130;2023-08-24T05:53:55;8.80;;;5.32;;
11907;SDS011;6014;47.690;9.130;2023-08-24T05:56:24;9.65;;;5.20;;
11907;SDS011;6014;47.690;9.130;2023-08-24T05:58:55;10.73;;;5.25;;
11907;SDS011;6014;47.690;9.130;2023-08-24T06:01:24;7.40;;;5.10;;
11907;SDS011;6014;47.690;9.130;2023-08-24T06:03:52;7.68;;;5.40;;
11907;SDS011;6014;47.690;9.130;2023-08-24T06:06:20;8.60;;;5.90;;
11907;SDS011;6014;47.690;9.130;2023-08-24T06:08:48;8.73;;;4.90;;
11907;SDS011;6014;47.690;9.130;2023-08-24T06:11:16;9.68;;;5.90;;
11907;SDS011;6014;47.690;9.130;2023-08-24T06:13:45;8.18;;;5.03;;
11907;SDS011;6014;47.690;9.130;2023-08-24T06:16:14;8.32;;;5.40;;
11907;SDS011;6014;47.690;9.130;2023-08-24T06:18:42;9.98;;;5.70;;
11907;SDS011;6014;47.690;9.130;2023-08-24T06:21:10;7.38;;;4.85;;
11907;SDS011;6014;47.690;9.130;2023-08-24T06:23:39;7.63;;;4.70;;
11907;SDS011;6014;47.690;9.130;2023-08-24T06:26:07;7.68;;;5.15;;
11907;SDS011;6014;47.690;9.130;2023-08-24T06:28:35;8.63;;;4.88;;
11907;SDS011;6014;47.690;9.130;2023-08-24T06:31:03;7.63;;;5.25;;
11907;SDS011;6014;47.690;9.130;2023-08-24T06:33:34;8.13;;;5.05;;
11907;SDS011;6014;47.690;9.130;2023-08-24T06:36:02;9.07;;;5.05;;
11907;SDS011;6014;47.690;9.130;2023-08-24T06:38:32;7.78;;;4.65;;
11907;SDS011;6014;47.690;9.130;2023-08-24T06:41:00;7.35;;;4.82;;
11907;SDS011;6014;47.690;9.130;2023-08-24T06:43:28;8.27;;;4.80;;
11907;SDS011;6014;47.690;9.130;2023-08-24T06:45:56;6.82;;;4.53;;
11907;SDS011;6014;47.690;9.130;2023-08-24T06:48:24;8.85;;;4.55;;
11907;SDS011;6014;47.690;9.130;2023-08-24T06:50:54;7.82;;;4.75;;
11907;SDS011;6014;47.690;9.130;2023-08-24T06:53:22;9.85;;;4.97;;
11907;SDS011;6014;47.690;9.130;2023-08-24T06:55:53;9.27;;;5.13;;
11907;SDS011;6014;47.690;9.130;2023-08-24T06:58:22;8.38;;;4.93;;
11907;SDS011;6014;47.690;9.130;2023-08-24T07:00:50;7.97;;;4.80;;
11907;SDS011;6014;47.690;9.130;2023-08-24T07:03:19;6.50;;;4.80;;
11907;SDS011;6014;47.690;9.130;2023-08-24T07:05:47;8.45;;;5.18;;
11907;SDS011;6014;47.690;9.130;2023-08-24T07:08:17;9.55;;;4.93;;
11907;SDS011;6014;47.690;9.130;2023-08-24T07:10:45;7.15;;;4.68;;
11907;SDS011;6014;47.690;9.130;2023-08-24T07:13:13;8.90;;;5.45;;
11907;SDS011;6014;47.690;9.130;2023-08-24T07:15:41;8.75;;;4.82;;
11907;SDS011;6014;47.690;9.130;2023-08-24T07:18:11;8.32;;;4.50;;
11907;SDS011;6014;47.690;9.130;2023-08-24T07:20:39;7.47;;;3.90;;
11907;SDS011;6014;47.690;9.130;2023-08-24T07:23:07;8.13;;;4.35;;
11907;SDS011;6014;47.690;9.130;2023-08-24T07:25:37;9.75;;;4.22;;
11907;SDS011;6014;47.690;9.130;2023-08-24T07:28:05;9.52;;;4.80;;
11907;SDS011;6014;47.690;9.130;2023-08-24T07:30:35;9.13;;;5.00;;
11907;SDS011;6014;47.690;9.130;2023-08-24T07:33:03;9.77;;;4.40;;
11907;SDS011;6014;47.690;9.130;2023-08-24T07:35:32;8.52;;;4.88;;
11907;SDS011;6014;47.690;9.130;2023-08-24T07:38:00;10.23;;;4.95;;
11907;SDS011;6014;47.690;9.130;2023-08-24T07:40:29;6.65;;;4.13;;
11907;SDS011;6014;47.690;9.130;2023-08-24T07:42:58;8.30;;;4.88;;
11907;SDS011;6014;47.690;9.130;2023-08-24T07:45:26;8.55;;;4.82;;
11907;SDS011;6014;47.690;9.130;2023-08-24T07:47:56;9.45;;;4.55;;
11907;SDS011;6014;47.690;9.130;2023-08-24T07:50:24;7.97;;;4.97;;
11907;SDS011;6014;47.690;9.130;2023-08-24T07:52:52;6.97;;;4.75;;
11907;SDS011;6014;47.690;9.130;2023-08-24T07:55:23;8.27;;;4.35;;
11907;SDS011;6014;47.690;9.130;2023-08-24T07:57:51;11.02;;;4.63;;
11907;SDS011;6014;47.690;9.130;2023-08-24T08:00:21;11.68;;;5.18;;
11907;SDS011;6014;47.690;9.130;2023-08-24T08:02:50;10.25;;;4.65;;
11907;SDS011;6014;47.690;9.130;2023-08-24T08:05:19;9.15;;;4.65;;
11907;SDS011;6014;47.690;9.130;2023-08-24T08:07:47;10.60;;;4.82;;
11907;SDS011;6014;47.690;9.130;2023-08-24T08:10:16;8.63;;;4.80;;
11907;SDS011;6014;47.690;9.130;2023-08-24T08:12:46;9.13;;;4.70;;
11907;SDS011;6014;47.690;9.130;2023-08-24T08:15:14;6.82;;;4.35;;
11907;SDS011;6014;47.690;9.130;2023-08-24T08:17:44;8.93;;;4.70;;
11907;SDS011;6014;47.690;9.130;2023-08-24T08:20:13;8.75;;;5.15;;
11907;SDS011;6014;47.690;9.130;2023-08-24T08:22:42;9.43;;;4.95;;
11907;SDS011;6014;47.690;9.130;2023-08-24T08:25:10;6.72;;;4.43;;
11907;SDS011;6014;47.690;9.130;2023-08-24T08:27:38;8.73;;;4.63;;
11907;SDS011;6014;47.690;9.130;2023-08-24T08:30:06;7.13;;;4.88;;
11907;SDS011;6014;47.690;9.130;2023-08-24T08:32:35;8.95;;;5.15;;
11907;SDS011;6014;47.690;9.130;2023-08-24T08:35:05;7.05;;;4.30;;
11907;SDS011;6014;47.690;9.130;2023-08-24T08:37:34;9.23;;;5.22;;
11907;SDS011;6014;47.690;9.130;2023-08-24T08:40:02;8.13;;;4.60;;
11907;SDS011;6014;47.690;9.130;2023-08-24T08:42:32;7.57;;;4.60;;
11907;SDS011;6014;47.690;9.130;2023-08-24T08:45:02;7.32;;;4.47;;
11907;SDS011;6014;47.690;9.130;2023-08-24T08:47:35;11.10;;;5.03;;
11907;SDS011;6014;47.690;9.130;2023-08-24T08:50:05;6.78;;;4.80;;
11907;SDS011;6014;47.690;9.130;2023-08-24T08:52:34;9.40;;;4.63;;
11907;SDS011;6014;47.690;9.130;2023-08-24T08:55:02;7.90;;;4.70;;
11907;SDS011;6014;47.690;9.130;2023-08-24T08:57:32;9.90;;;4.82;;
11907;SDS011;6014;47.690;9.130;2023-08-24T09:00:01;11.75;;;4.78;;
11907;SDS011;6014;47.690;9.130;2023-08-24T09:02:30;11.55;;;4.80;;
11907;SDS011;6014;47.690;9.130;2023-08-24T09:05:00;7.50;;;4.68;;
11907;SDS011;6014;47.690;9.130;2023-08-24T09:07:31;11.70;;;4.55;;
11907;SDS011;6014;47.690;9.130;2023-08-24T09:10:01;7.85;;;4.80;;
11907;SDS011;6014;47.690;9.130;2023-08-24T09:12:31;6.95;;;4.70;;
11907;SDS011;6014;47.690;9.130;2023-08-24T09:14:59;7.82;;;4.93;;
11907;SDS011;6014;47.690;9.130;2023-08-24T09:17:30;8.32;;;4.85;;
11907;SDS011;6014;47.690;9.130;2023-08-24T09:19:58;6.90;;;4.70;;
11907;SDS011;6014;47.690;9.130;2023-08-24T09:22:27;10.25;;;4.80;;
11907;SDS011;6014;47.690;9.130;2023-08-24T09:25:03;11.82;;;7.25;;
11907;SDS011;6014;47.690;9.130;2023-08-24T09:27:32;8.40;;;4.97;;
11907;SDS011;6014;47.690;9.130;2023-08-24T09:30:02;9.20;;;6.32;;
11907;SDS011;6014;47.690;9.130;2023-08-24T09:32:32;9.70;;;4.95;;
11907;SDS011;6014;47.690;9.130;2023-08-24T09:35:02;10.15;;;5.00;;
11907;SDS011;6014;47.690;9.130;2023-08-24T09:37:32;6.97;;;5.10;;
11907;SDS011;6014;47.690;9.130;2023-08-24T09:40:03;11.63;;;5.35;;
11907;SDS011;6014;47.690;9.130;2023-08-24T09:42:37;8.68;;;5.75;;
11907;SDS011;6014;47.690;9.130;2023-08-24T09:45:07;10.27;;;5.28;;
11907;SDS011;6014;47.690;9.130;2023-08-24T09:47:37;8.48;;;5.85;;
11907;SDS011;6014;47.690;9.130;2023-08-24T09:50:05;11.65;;;4.72;;
11907;SDS011;6014;47.690;9.130;2023-08-24T09:52:34;9.88;;;5.22;;
11907;SDS011;6014;47.690;9.130;2023-08-24T09:55:05;7.68;;;4.78;;
11907;SDS011;6014;47.690;9.130;2023-08-24T09:57:36;8.15;;;4.68;;
11907;SDS011;6014;47.690;9.130;2023-08-24T10:00:06;8.10;;;5.07;;
11907;SDS011;6014;47.690;9.130;2023-08-24T10:02:39;8.60;;;4.72;;
11907;SDS011;6014;47.690;9.130;2023-08-24T10:05:19;7.78;;;5.35;;
11907;SDS011;6014;47.690;9.130;2023-08-24T10:07:53;9.70;;;4.30;;
11907;SDS011;6014;47.690;9.130;2023-08-24T10:10:25;8.30;;;4.70;;
11907;SDS011;6014;47.690;9.130;2023-08-24T10:12:56;8.88;;;5.45;;
11907;SDS011;6014;47.690;9.130;2023-08-24T10:15:28;9.80;;;5.10;;
11907;SDS011;6014;47.690;9.130;2023-08-24T10:17:56;10.32;;;4.72;;
11907;SDS011;6014;47.690;9.130;2023-08-24T10:20:26;7.55;;;4.32;;
11907;SDS011;6014;47.690;9.130;2023-08-24T10:22:56;6.97;;;4.35;;
11907;SDS011;6014;47.690;9.130;2023-08-24T10:25:32;9.50;;;4.75;;
11907;SDS011;6014;47.690;9.130;2023-08-24T10:28:00;9.88;;;4.47;;
11907;SDS011;6014;47.690;9.130;2023-08-24T10:30:30;7.78;;;4.55;;
11907;SDS011;6014;47.690;9.130;2023-08-24T10:32:58;7.72;;;4.45;;
11907;SDS011;6014;47.690;9.130;2023-08-24T10:35:28;11.18;;;4.40;;
11907;SDS011;6014;47.690;9.130;2023-08-24T10:37:57;12.00;;;4.68;;
11907;SDS011;6014;47.690;9.130;2023-08-24T10:40:33;8.90;;;4.28;;
11907;SDS011;6014;47.690;9.130;2023-08-24T10:43:03;8.73;;;4.20;;
11907;SDS011;6014;47.690;9.130;2023-08-24T10:48:22;7.68;;;4.32;;
11907;SDS011;6014;47.690;9.130;2023-08-24T10:53:46;8.27;;;4.20;;
11907;SDS011;6014;47.690;9.130;2023-08-24T10:56:19;9.43;;;4.40;;
11907;SDS011;6014;47.690;9.130;2023-08-24T10:59:09;8.38;;;4.45;;
11907;SDS011;6014;47.690;9.130;2023-08-24T11:01:40;9.75;;;4.63;;
11907;SDS011;6014;47.690;9.130;2023-08-24T11:04:10;8.82;;;4.38;;
11907;SDS011;6014;47.690;9.130;2023-08-24T11:06:51;10.18;;;4.70;;
11907;SDS011;6014;47.690;9.130;2023-08-24T11:09:20;10.65;;;4.32;;
11907;SDS011;6014;47.690;9.130;2023-08-24T11:11:57;12.20;;;4.07;;
11907;SDS011;6014;47.690;9.130;2023-08-24T11:14:26;9.43;;;4.15;;
11907;SDS011;6014;47.690;9.130;2023-08-24T11:16:57;8.65;;;4.88;;
11907;SDS011;6014;47.690;9.130;2023-08-24T11:19:27;10.07;;;4.22;;
11907;SDS011;6014;47.690;9.130;2023-08-24T11:21:56;8.32;;;4.35;;
11907;SDS011;6014;47.690;9.130;2023-08-24T11:24:25;7.53;;;4.30;;
11907;SDS011;6014;47.690;9.130;2023-08-24T11:26:54;8.52;;;4.43;;
11907;SDS011;6014;47.690;9.130;2023-08-24T11:29:26;7.55;;;4.05;;
11907;SDS011;6014;47.690;9.130;2023-08-24T11:31:54;10.57;;;4.10;;
11907;SDS011;6014;47.690;9.130;2023-08-24T11:34:25;7.88;;;3.97;;
11907;SDS011;6014;47.690;9.130;2023-08-24T11:36:53;7.28;;;4.03;;
11907;SDS011;6014;47.690;9.130;2023-08-24T11:39:22;10.15;;;4.15;;
11907;SDS011;6014;47.690;9.130;2023-08-24T11:42:02;10.27;;;4.03;;
11907;SDS011;6014;47.690;9.130;2023-08-24T11:44:44;10.60;;;4.00;;
11907;SDS011;6014;47.690;9.130;2023-08-24T11:47:13;9.75;;;4.50;;
11907;SDS011;6014;47.690;9.130;2023-08-24T11:49:41;5.70;;;3.60;;
11907;SDS011;6014;47.690;9.130;2023-08-24T11:52:09;9.75;;;3.92;;
11907;SDS011;6014;47.690;9.130;2023-08-24T11:54:37;11.43;;;3.95;;
11907;SDS011;6014;47.690;9.130;2023-08-24T11:57:07;12.30;;;4.00;;
11907;SDS011;6014;47.690;9.130;2023-08-24T11:59:35;9.15;;;4.30;;
11907;SDS011;6014;47.690;9.130;2023-08-24T12:02:04;8.77;;;4.38;;
11907;SDS011;6014;47.690;9.130;2023-08-24T12:04:38;8.98;;;4.03;;
11907;SDS011;6014;47.690;9.130;2023-08-24T12:07:09;14.57;;;4.47;;
11907;SDS011;6014;47.690;9.130;2023-08-24T12:09:38;9.95;;;4.05;;
11907;SDS011;6014;47.690;9.130;2023-08-24T12:12:12;8.00;;;4.38;;
11907;SDS011;6014;47.690;9.130;2023-08-24T12:14:41;10.85;;;4.30;;
11907;SDS011;6014;47.690;9.130;2023-08-24T12:17:09;9.25;;;3.97;;
11907;SDS011;6014;47.690;9.130;2023-08-24T12:19:40;8.48;;;3.80;;
11907;SDS011;6014;47.690;9.130;2023-08-24T12:22:12;7.03;;;3.30;;
11907;SDS011;6014;47.690;9.130;2023-08-24T12:24:43;13.27;;;4.55;;
11907;SDS011;6014;47.690;9.130;2023-08-24T12:27:18;9.75;;;3.70;;
11907;SDS011;6014;47.690;9.130;2023-08-24T12:29:47;16.20;;;4.07;;
11907;SDS011;6014;47.690;9.130;2023-08-24T12:32:15;10.65;;;4.65;;
11907;SDS011;6014;47.690;9.130;2023-08-24T12:34:46;8.68;;;3.70;;
11907;SDS011;6014;47.690;9.130;2023-08-24T12:37:14;10.18;;;4.40;;
11907;SDS011;6014;47.690;9.130;2023-08-24T12:39:42;7.05;;;3.85;;
11907;SDS011;6014;47.690;9.130;2023-08-24T12:42:11;8.68;;;3.90;;
11907;SDS011;6014;47.690;9.130;2023-08-24T12:44:40;8.10;;;3.63;;
11907;SDS011;6014;47.690;9.130;2023-08-24T12:47:09;11.55;;;4.03;;
11907;SDS011;6014;47.690;9.130;2023-08-24T12:49:37;11.77;;;4.18;;
11907;SDS011;6014;47.690;9.130;2023-08-24T12:52:05;8.43;;;4.45;;
11907;SDS011;6014;47.690;9.130;2023-08-24T12:54:33;10.63;;;4.45;;
11907;SDS011;6014;47.690;9.130;2023-08-24T12:57:01;8.75;;;4.25;;
11907;SDS011;6014;47.690;9.130;2023-08-24T12:59:29;8.80;;;4.60;;
11907;SDS011;6014;47.690;9.130;2023-08-24T13:01:59;8.60;;;4.22;;
11907;SDS011;6014;47.690;9.130;2023-08-24T13:04:27;14.40;;;4.60;;
11907;SDS011;6014;47.690;9.130;2023-08-24T13:06:57;8.85;;;4.53;;
11907;SDS011;6014;47.690;9.130;2023-08-24T13:09:25;9.32;;;4.18;;
11907;SDS011;6014;47.690;9.130;2023-08-24T13:11:53;7.75;;;4.43;;
11907;SDS011;6014;47.690;9.130;2023-08-24T13:14:21;9.15;;;4.18;;
11907;SDS011;6014;47.690;9.130;2023-08-24T13:16:50;11.30;;;4.47;;
11907;SDS011;6014;47.690;9.130;2023-08-24T13:19:19;8.27;;;4.88;;
11907;SDS011;6014;47.690;9.130;2023-08-24T13:21:48;9.32;;;5.15;;
11907;SDS011;6014;47.690;9.130;2023-08-24T13:24:16;8.43;;;4.30;;
11907;SDS011;6014;47.690;9.130;2023-08-24T13:26:44;11.25;;;4.47;;
11907;SDS011;6014;47.690;9.130;2023-08-24T13:29:12;13.45;;;4.63;;
11907;SDS011;6014;47.690;9.130;2023-08-24T13:31:43;8.15;;;4.28;;
11907;SDS011;6014;47.690;9.130;2023-08-24T13:34:11;12.07;;;5.35;;
11907;SDS011;6014;47.690;9.130;2023-08-24T13:36:40;8.52;;;3.80;;
11907;SDS011;6014;47.690;9.130;2023-08-24T13:39:08;7.90;;;4.07;;
11907;SDS011;6014;47.690;9.130;2023-08-24T13:41:37;8.98;;;4.18;;
11907;SDS011;6014;47.690;9.130;2023-08-24T13:44:05;10.85;;;4.80;;
11907;SDS011;6014;47.690;9.130;2023-08-24T13:46:33;11.38;;;4.57;;
11907;SDS011;6014;47.690;9.130;2023-08-24T13:49:01;7.60;;;3.92;;
11907;SDS011;6014;47.690;9.130;2023-08-24T13:51:29;9.05;;;4.25;;
11907;SDS011;6014;47.690;9.130;2023-08-24T13:53:59;11.55;;;4.75;;
11907;SDS011;6014;47.690;9.130;2023-08-24T13:56:27;8.40;;;3.80;;
11907;SDS011;6014;47.690;9.130;2023-08-24T13:58:55;8.60;;;4.00;;
11907;SDS011;6014;47.690;9.130;2023-08-24T14:01:23;8.23;;;4.13;;
11907;SDS011;6014;47.690;9.130;2023-08-24T14:03:51;7.90;;;4.20;;
11907;SDS011;6014;47.690;9.130;2023-08-24T14:06:19;8.80;;;4.25;;
11907;SDS011;6014;47.690;9.130;2023-08-24T14:08:48;13.90;;;4.43;;
11907;SDS011;6014;47.690;9.130;2023-08-24T14:11:17;12.13;;;4.28;;
11907;SDS011;6014;47.690;9.130;2023-08-24T14:13:45;10.27;;;4.30;;
11907;SDS011;6014;47.690;9.130;2023-08-24T14:16:13;11.18;;;4.68;;
11907;SDS011;6014;47.690;9.130;2023-08-24T14:18:41;16.15;;;4.15;;
11907;SDS011;6014;47.690;9.130;2023-08-24T14:21:09;11.20;;;4.30;;
11907;SDS011;6014;47.690;9.130;2023-08-24T14:23:41;8.52;;;4.20;;
11907;SDS011;6014;47.690;9.130;2023-08-24T14:26:09;9.70;;;3.85;;
11907;SDS011;6014;47.690;9.130;2023-08-24T14:28:48;15.40;;;4.18;;
11907;SDS011;6014;47.690;9.130;2023-08-24T14:31:17;7.72;;;4.20;;
11907;SDS011;6014;47.690;9.130;2023-08-24T14:33:45;9.38;;;4.28;;
11907;SDS011;6014;47.690;9.130;2023-08-24T14:36:13;6.80;;;4.10;;
11907;SDS011;6014;47.690;9.130;2023-08-24T14:38:41;9.38;;;4.40;;
11907;SDS011;6014;47.690;9.130;2023-08-24T14:41:10;10.88;;;5.13;;
11907;SDS011;6014;47.690;9.130;2023-08-24T14:43:38;8.43;;;3.70;;
11907;SDS011;6014;47.690;9.130;2023-08-24T14:46:08;13.95;;;4.32;;
11907;SDS011;6014;47.690;9.130;2023-08-24T14:48:37;9.75;;;4.32;;
11907;SDS011;6014;47.690;9.130;2023-08-24T14:51:05;11.20;;;4.40;;
11907;SDS011;6014;47.690;9.130;2023-08-24T14:53:34;10.05;;;4.22;;
11907;SDS011;6014;47.690;9.130;2023-08-24T14:56:02;10.93;;;4.53;;
11907;SDS011;6014;47.690;9.130;2023-08-24T14:58:30;10.15;;;4.20;;
11907;SDS011;6014;47.690;9.130;2023-08-24T15:00:58;10.52;;;4.90;;
11907;SDS011;6014;47.690;9.130;2023-08-24T15:03:28;10.05;;;4.70;;
11907;SDS011;6014;47.690;9.130;2023-08-24T15:05:56;12.00;;;5.22;;
11907;SDS011;6014;47.690;9.130;2023-08-24T15:08:27;9.52;;;4.28;;
11907;SDS011;6014;47.690;9.130;2023-08-24T15:10:56;8.68;;;4.22;;
11907;SDS011;6014;47.690;9.130;2023-08-24T15:13:25;12.68;;;4.13;;
11907;SDS011;6014;47.690;9.130;2023-08-24T15:15:55;10.48;;;3.88;;